Terminal Aerodrome Forecast
Issued by NWS

Home | Current Version | Previous Version | Text Only | Print | Product List | Glossary On
Versions: 1 2 3 4 5 6 7 8 9 10 11 12 13 14 15 16 17 18 19 20 21
000
FTUS43 KOAX 202336
TAFCDR
TAF
KCDR 202336Z 2100/2124 16012KT P6SM SCT150
     FM210200 15011KT P6SM VCTS BKN100CB
      TEMPO 2103/2106 VRB20G30KT 4SM TSRA BKN035 OVC060CB
     FM210800 24006KT P6SM BKN150=

USA.gov is the U.S. government's official web portal to all federal, state and local government web resources and services.